createdAt,value
2023-11-12T00:00:40.793Z,95.50
2023-11-12T00:03:07.841Z,95.60
2023-11-12T00:05:35.339Z,95.60
2023-11-12T00:08:02.552Z,95.70
2023-11-12T00:10:29.571Z,95.70
2023-11-12T00:12:56.569Z,95.70
2023-11-12T00:15:23.505Z,95.70
2023-11-12T00:17:50.547Z,95.80
2023-11-12T00:20:18.973Z,95.80
2023-11-12T00:22:46.208Z,95.70
2023-11-12T00:25:14.822Z,95.70
2023-11-12T00:27:42.075Z,95.70
2023-11-12T00:30:10.443Z,95.80
2023-11-12T00:32:38.251Z,95.90
2023-11-12T00:35:06.621Z,95.90
2023-11-12T00:37:34.156Z,96.00
2023-11-12T00:40:01.319Z,96.00
2023-11-12T00:42:28.573Z,96.10
2023-11-12T00:44:55.617Z,96.10
2023-11-12T00:47:22.697Z,96.10
2023-11-12T00:49:49.826Z,96.10
2023-11-12T00:52:17.634Z,96.20
2023-11-12T00:54:45.356Z,96.20
2023-11-12T00:57:12.367Z,96.30
2023-11-12T00:59:39.304Z,96.20
2023-11-12T01:02:06.490Z,96.20
2023-11-12T01:04:33.531Z,96.30
2023-11-12T01:07:00.452Z,96.20
2023-11-12T01:09:29.471Z,96.20
2023-11-12T01:11:56.447Z,96.20
2023-11-12T01:14:23.935Z,96.20
2023-11-12T01:16:51.050Z,96.20
2023-11-12T01:19:18.044Z,96.10
2023-11-12T01:21:44.997Z,96.10
2023-11-12T01:24:12.043Z,96.00
2023-11-12T01:26:39.652Z,96.00
2023-11-12T01:29:06.678Z,96.00
2023-11-12T01:31:33.643Z,95.90
2023-11-12T01:34:01.349Z,95.90
2023-11-12T01:36:28.455Z,95.90
2023-11-12T01:38:55.459Z,95.90
2023-11-12T01:41:23.125Z,96.00
2023-11-12T01:43:50.076Z,96.10
2023-11-12T01:46:19.992Z,96.10
2023-11-12T01:48:47.852Z,96.20
2023-11-12T01:51:15.201Z,96.20
2023-11-12T01:53:42.663Z,96.30
2023-11-12T01:56:13.025Z,96.40
2023-11-12T01:58:41.958Z,96.40
2023-11-12T02:01:09.343Z,96.40
2023-11-12T02:03:38.068Z,96.40
2023-11-12T02:06:06.551Z,96.40
2023-11-12T02:08:36.272Z,96.50
2023-11-12T02:11:08.946Z,96.50
2023-11-12T02:13:38.409Z,96.50
2023-11-12T02:16:05.857Z,96.50
2023-11-12T02:18:32.854Z,96.40
2023-11-12T02:21:00.564Z,96.50
2023-11-12T02:23:28.168Z,96.40
2023-11-12T02:25:55.117Z,96.40
2023-11-12T02:28:22.161Z,96.40
2023-11-12T02:30:49.281Z,96.30
2023-11-12T02:33:16.514Z,96.30
2023-11-12T02:35:46.915Z,96.30
2023-11-12T02:38:13.965Z,96.40
2023-11-12T02:40:40.936Z,96.30
2023-11-12T02:43:08.009Z,96.30
2023-11-12T02:45:35.008Z,96.30
2023-11-12T02:48:03.088Z,96.30
2023-11-12T02:50:34.310Z,96.40
2023-11-12T02:53:04.518Z,96.40
2023-11-12T02:55:32.682Z,96.40
2023-11-12T02:58:01.484Z,96.40
2023-11-12T03:00:29.529Z,96.40
2023-11-12T03:03:02.410Z,96.40
2023-11-12T03:05:32.702Z,96.40
2023-11-12T03:07:59.875Z,96.30
2023-11-12T03:10:26.982Z,96.30
2023-11-12T03:12:55.121Z,96.30
2023-11-12T03:15:22.462Z,96.30
2023-11-12T03:17:52.148Z,96.20
2023-11-12T03:20:19.292Z,96.20
2023-11-12T03:22:47.068Z,96.20
2023-11-12T03:25:14.039Z,96.20
2023-11-12T03:27:41.168Z,96.10
2023-11-12T03:30:10.562Z,96.10
2023-11-12T03:32:37.894Z,96.10
2023-11-12T03:35:06.078Z,96.10
2023-11-12T03:37:33.516Z,96.00
2023-11-12T03:40:00.588Z,96.10
2023-11-12T03:42:28.094Z,96.10
2023-11-12T03:44:56.945Z,96.10
2023-11-12T03:47:25.515Z,96.10
2023-11-12T03:49:52.493Z,96.10
2023-11-12T03:52:19.434Z,96.10
2023-11-12T03:54:46.536Z,96.00
2023-11-12T03:57:14.550Z,96.00
2023-11-12T03:59:41.661Z,95.90
2023-11-12T04:02:08.673Z,95.90
2023-11-12T04:04:36.267Z,95.90
2023-11-12T04:07:03.962Z,95.90
2023-11-12T04:09:31.757Z,95.90
2023-11-12T04:11:58.740Z,96.00
2023-11-12T04:14:25.699Z,96.00
2023-11-12T04:16:52.653Z,96.00
2023-11-12T04:19:19.583Z,96.10
2023-11-12T04:21:48.346Z,96.10
2023-11-12T04:24:16.550Z,96.10
2023-11-12T04:26:44.081Z,96.10
2023-11-12T04:29:11.722Z,96.10
2023-11-12T04:31:40.292Z,96.20
2023-11-12T04:34:08.254Z,96.10
2023-11-12T04:36:37.825Z,96.10
2023-11-12T04:39:05.659Z,96.10
2023-11-12T04:41:32.808Z,96.10
2023-11-12T04:44:00.418Z,96.10
2023-11-12T04:46:28.920Z,96.20
2023-11-12T04:48:56.200Z,96.10
2023-11-12T04:51:23.486Z,96.10
2023-11-12T04:53:50.493Z,96.10
2023-11-12T04:56:17.441Z,96.00
2023-11-12T04:58:44.415Z,96.10
2023-11-12T05:01:11.342Z,96.00
2023-11-12T05:03:38.352Z,96.00
2023-11-12T05:06:05.659Z,96.10
2023-11-12T05:08:32.835Z,96.40
2023-11-12T05:10:59.990Z,96.10
2023-11-12T05:13:27.230Z,96.10
2023-11-12T05:15:54.445Z,96.10
2023-11-12T05:18:22.556Z,96.00
2023-11-12T05:20:49.664Z,96.00
2023-11-12T05:23:16.652Z,96.00
2023-11-12T05:25:43.586Z,95.90
2023-11-12T05:28:10.526Z,96.00
2023-11-12T05:30:37.699Z,96.00
2023-11-12T05:33:04.688Z,96.00
2023-11-12T05:35:31.892Z,96.00
2023-11-12T05:37:58.806Z,96.00
2023-11-12T05:40:25.795Z,95.90
2023-11-12T05:42:52.770Z,95.90
2023-11-12T05:45:20.313Z,95.80
2023-11-12T05:47:47.495Z,95.80
2023-11-12T05:50:15.795Z,95.90
2023-11-12T05:52:43.540Z,95.80
2023-11-12T05:55:11.853Z,95.80
2023-11-12T05:57:38.839Z,95.80
2023-11-12T06:00:10.383Z,95.90
2023-11-12T06:02:40.617Z,95.90
2023-11-12T06:05:08.183Z,96.00
2023-11-12T06:07:35.193Z,96.00
2023-11-12T06:10:02.657Z,96.10
2023-11-12T06:12:29.681Z,96.10
2023-11-12T06:14:56.822Z,96.00
2023-11-12T06:17:25.906Z,96.10
2023-11-12T06:19:53.463Z,96.10
2023-11-12T06:22:21.276Z,96.20
2023-11-12T06:24:48.277Z,96.20
2023-11-12T06:27:15.244Z,96.20
2023-11-12T06:29:42.180Z,96.20
2023-11-12T06:32:09.130Z,96.20
2023-11-12T06:34:36.296Z,96.20
2023-11-12T06:37:04.295Z,96.20
2023-11-12T06:39:32.139Z,96.20
2023-11-12T06:41:59.293Z,96.20
2023-11-12T06:44:26.264Z,96.20
2023-11-12T06:46:53.255Z,96.20
2023-11-12T06:49:20.221Z,96.20
2023-11-12T06:51:47.218Z,96.20
2023-11-12T06:54:14.273Z,96.30
2023-11-12T06:56:41.289Z,96.30
2023-11-12T06:59:08.277Z,96.30
2023-11-12T07:01:35.294Z,96.40
2023-11-12T07:04:02.407Z,96.40
2023-11-12T07:06:30.100Z,96.30
2023-11-12T07:08:57.066Z,96.30
2023-11-12T07:11:23.974Z,96.40
2023-11-12T07:13:51.258Z,96.40
2023-11-12T07:16:19.265Z,96.40
2023-11-12T07:18:53.764Z,96.40
2023-11-12T07:21:29.846Z,96.30
2023-11-12T07:23:57.285Z,96.20
2023-11-12T07:26:25.767Z,96.20
2023-11-12T07:28:53.827Z,96.10
2023-11-12T07:31:24.187Z,96.10
2023-11-12T07:33:52.127Z,96.10
2023-11-12T07:36:19.843Z,96.00
2023-11-12T07:38:46.936Z,96.10
2023-11-12T07:41:13.865Z,96.10
2023-11-12T07:43:41.124Z,96.10
2023-11-12T07:46:08.316Z,96.00
2023-11-12T07:48:36.814Z,95.90
2023-11-12T07:51:03.964Z,95.80
2023-11-12T07:53:30.881Z,95.70
2023-11-12T07:55:57.898Z,95.70
2023-11-12T07:58:24.967Z,95.70
2023-11-12T08:00:52.200Z,95.70
2023-11-12T08:03:20.488Z,95.70
2023-11-12T08:05:48.343Z,95.70
2023-11-12T08:08:15.288Z,95.80
2023-11-12T08:10:42.255Z,95.80
2023-11-12T08:13:09.199Z,95.70
2023-11-12T08:15:36.405Z,95.70
2023-11-12T08:18:06.412Z,95.60
2023-11-12T08:20:35.604Z,95.60
2023-11-12T08:23:03.220Z,95.60
2023-11-12T08:25:30.188Z,95.60
2023-11-12T08:27:58.390Z,95.50
2023-11-12T08:30:25.669Z,95.60
2023-11-12T08:32:53.188Z,95.60
2023-11-12T08:35:20.149Z,95.60
2023-11-12T08:37:47.626Z,95.60
2023-11-12T08:40:16.608Z,95.60
2023-11-12T08:42:44.855Z,95.60
2023-11-12T08:45:11.840Z,95.50
2023-11-12T08:47:38.801Z,95.60
2023-11-12T08:50:06.278Z,95.60
2023-11-12T08:52:33.240Z,95.60
2023-11-12T08:55:00.425Z,95.80
2023-11-12T08:57:27.449Z,96.40
2023-11-12T08:59:54.793Z,95.80
2023-11-12T09:02:21.773Z,95.70
2023-11-12T09:04:48.729Z,95.40
2023-11-12T09:07:15.691Z,95.20
2023-11-12T09:09:42.672Z,95.20
2023-11-12T09:12:09.684Z,95.10
2023-11-12T09:14:36.903Z,95.10
2023-11-12T09:17:04.119Z,95.00
2023-11-12T09:19:31.112Z,95.00
2023-11-12T09:21:58.124Z,95.00
2023-11-12T09:24:25.252Z,95.10
2023-11-12T09:26:52.326Z,95.30
2023-11-12T09:29:19.926Z,95.40
2023-11-12T09:31:46.865Z,95.40
2023-11-12T09:34:14.602Z,95.30
2023-11-12T09:36:41.544Z,95.40
2023-11-12T09:39:08.530Z,95.40
2023-11-12T09:41:40.163Z,95.40
2023-11-12T09:44:08.944Z,95.30
2023-11-12T09:46:36.788Z,95.10
2023-11-12T09:49:05.341Z,94.90
2023-11-12T09:51:34.864Z,94.90
2023-11-12T09:54:02.208Z,94.90
2023-11-12T09:56:29.230Z,94.70
2023-11-12T09:58:56.183Z,94.70
2023-11-12T10:01:24.042Z,94.60
2023-11-12T10:03:52.440Z,94.70
2023-11-12T10:06:22.167Z,94.80
2023-11-12T10:08:51.319Z,94.80
2023-11-12T10:11:25.605Z,94.80
2023-11-12T10:13:53.124Z,94.60
2023-11-12T10:16:33.700Z,94.60
2023-11-12T10:19:16.250Z,94.50
2023-11-12T10:21:58.049Z,94.50
2023-11-12T10:24:30.718Z,94.50
2023-11-12T10:27:01.971Z,94.60
2023-11-12T10:29:28.902Z,94.70
2023-11-12T10:31:56.646Z,94.60
2023-11-12T10:34:25.873Z,94.50
2023-11-12T10:37:09.243Z,94.50
2023-11-12T10:39:42.656Z,94.40
2023-11-12T10:42:25.803Z,94.60
2023-11-12T10:44:57.291Z,94.40
2023-11-12T10:47:31.231Z,94.60
2023-11-12T10:49:59.094Z,94.40
2023-11-12T10:52:27.947Z,94.20
2023-11-12T10:54:59.399Z,93.80
2023-11-12T10:57:27.372Z,93.70
2023-11-12T10:59:56.007Z,93.70
2023-11-12T11:02:29.830Z,93.90
2023-11-12T11:04:58.151Z,94.20
2023-11-12T11:07:25.503Z,93.50
2023-11-12T11:09:52.895Z,93.40
2023-11-12T11:12:20.557Z,92.80
2023-11-12T11:14:47.840Z,92.70
2023-11-12T11:17:39.661Z,92.80
2023-11-12T11:20:07.428Z,92.40
2023-11-12T11:22:34.389Z,92.70
2023-11-12T11:25:23.407Z,92.40
2023-11-12T11:27:51.749Z,92.30
2023-11-12T11:30:18.874Z,92.30
2023-11-12T11:33:03.753Z,92.40
2023-11-12T11:35:32.826Z,92.60
2023-11-12T11:38:12.846Z,92.50
2023-11-12T11:40:43.651Z,92.80
2023-11-12T11:43:23.086Z,93.00
2023-11-12T11:46:09.714Z,92.90
2023-11-12T11:48:48.964Z,92.90
2023-11-12T11:51:36.243Z,92.80
2023-11-12T11:54:07.419Z,92.50
2023-11-12T11:56:35.277Z,92.50
2023-11-12T11:59:02.941Z,92.70
2023-11-12T12:01:29.920Z,92.60
2023-11-12T12:04:06.458Z,92.40
2023-11-12T12:06:34.545Z,92.30
2023-11-12T12:09:01.563Z,92.10
2023-11-12T12:11:28.589Z,92.00
2023-11-12T12:14:01.226Z,91.90
2023-11-12T12:16:30.334Z,91.90
2023-11-12T12:18:57.684Z,91.50
2023-11-12T12:21:25.711Z,91.70
2023-11-12T12:23:53.155Z,91.80
2023-11-12T12:26:25.440Z,91.70
2023-11-12T12:28:53.574Z,91.80
2023-11-12T12:31:21.107Z,91.70
2023-11-12T12:34:09.376Z,91.40
2023-11-12T12:36:37.510Z,91.00
2023-11-12T12:39:10.922Z,91.10
2023-11-12T12:41:41.027Z,90.80
2023-11-12T12:44:23.884Z,90.80
2023-11-12T12:46:55.421Z,90.70
2023-11-12T12:49:40.943Z,90.70
2023-11-12T12:52:24.631Z,90.40
2023-11-12T12:54:54.146Z,90.00
2023-11-12T12:57:25.121Z,90.20
2023-11-12T12:59:52.248Z,90.20
2023-11-12T13:02:19.257Z,90.20
2023-11-12T13:04:48.457Z,90.00
2023-11-12T13:07:16.353Z,90.30
2023-11-12T13:09:45.659Z,90.30
2023-11-12T13:12:13.691Z,90.40
2023-11-12T13:14:42.073Z,90.30
2023-11-12T13:17:09.649Z,90.20
2023-11-12T13:19:37.064Z,90.40
2023-11-12T13:22:04.747Z,90.30
2023-11-12T13:24:35.485Z,90.20
2023-11-12T13:27:03.930Z,90.30
2023-11-12T13:29:30.878Z,90.50
2023-11-12T13:31:57.971Z,90.60
2023-11-12T13:34:25.154Z,90.70
2023-11-12T13:36:52.548Z,90.90
2023-11-12T13:39:19.705Z,90.80
2023-11-12T13:41:48.147Z,90.80
2023-11-12T13:44:15.699Z,90.90
2023-11-12T13:46:42.770Z,91.10
2023-11-12T13:49:10.452Z,91.10
2023-11-12T13:51:40.851Z,91.20
2023-11-12T13:54:11.542Z,91.30
2023-11-12T13:56:40.178Z,91.40
2023-11-12T13:59:07.141Z,91.50
2023-11-12T14:01:34.226Z,91.50
2023-11-12T14:04:01.978Z,91.50
2023-11-12T14:06:29.107Z,91.40
2023-11-12T14:08:57.296Z,91.50
2023-11-12T14:11:24.259Z,91.40
2023-11-12T14:13:52.017Z,91.50
2023-11-12T14:16:19.150Z,91.60
2023-11-12T14:18:46.595Z,91.70
2023-11-12T14:21:13.829Z,91.70
2023-11-12T14:23:41.422Z,91.80
2023-11-12T14:26:09.672Z,92.00
2023-11-12T14:28:37.029Z,92.30
2023-11-12T14:31:08.347Z,92.50
2023-11-12T14:33:35.867Z,92.80
2023-11-12T14:36:03.063Z,93.00
2023-11-12T14:38:32.816Z,93.20
2023-11-12T14:40:59.752Z,93.40
2023-11-12T14:43:26.689Z,93.60
2023-11-12T14:45:53.763Z,93.60
2023-11-12T14:48:20.961Z,93.70
2023-11-12T14:50:49.952Z,94.00
2023-11-12T14:53:17.046Z,94.00
2023-11-12T14:55:43.974Z,94.10
2023-11-12T14:58:11.107Z,94.10
2023-11-12T15:00:41.059Z,94.20
2023-11-12T15:03:08.171Z,94.20
2023-11-12T15:05:35.714Z,94.30
2023-11-12T15:08:02.840Z,94.40
2023-11-12T15:10:30.301Z,94.50
2023-11-12T15:12:58.519Z,94.70
2023-11-12T15:15:25.782Z,94.60
2023-11-12T15:17:53.353Z,94.80
2023-11-12T15:20:21.274Z,94.80
2023-11-12T15:22:48.322Z,94.90
2023-11-12T15:25:16.275Z,94.90
2023-11-12T15:27:48.126Z,95.00
2023-11-12T15:30:18.106Z,95.20
2023-11-12T15:32:46.307Z,95.30
2023-11-12T15:35:15.092Z,95.40
2023-11-12T15:37:42.698Z,95.50
2023-11-12T15:40:20.991Z,95.50
2023-11-12T15:42:51.642Z,95.50
2023-11-12T15:45:19.326Z,95.60
2023-11-12T15:47:48.176Z,95.60
2023-11-12T15:50:16.669Z,95.60
2023-11-12T15:52:44.751Z,95.80
2023-11-12T15:55:16.992Z,95.90
2023-11-12T15:57:44.210Z,95.90
2023-11-12T16:00:15.938Z,95.90
2023-11-12T16:02:45.515Z,96.00
2023-11-12T16:05:13.815Z,96.00
2023-11-12T16:07:42.217Z,96.10
2023-11-12T16:10:11.965Z,96.10
2023-11-12T16:12:39.240Z,96.20
2023-11-12T16:15:12.101Z,96.40
2023-11-12T16:17:40.109Z,96.60
2023-11-12T16:20:09.701Z,97.20
2023-11-12T16:22:38.882Z,97.30
2023-11-12T16:25:09.478Z,97.60
2023-11-12T16:27:36.856Z,98.10
2023-11-12T16:30:04.855Z,98.20
2023-11-12T16:32:32.802Z,98.00
2023-11-12T16:35:00.506Z,97.90
2023-11-12T16:37:27.481Z,98.00
2023-11-12T16:39:54.509Z,98.30
2023-11-12T16:42:25.185Z,98.40
2023-11-12T16:44:52.519Z,98.30
2023-11-12T16:47:24.055Z,98.20
2023-11-12T16:49:51.974Z,97.80
2023-11-12T16:52:18.980Z,99.10
2023-11-12T16:54:46.582Z,99.90
2023-11-12T16:57:13.624Z,99.90
2023-11-12T16:59:41.391Z,98.70
2023-11-12T17:02:14.878Z,98.40
2023-11-12T17:04:42.347Z,97.20
2023-11-12T17:07:09.827Z,96.80
2023-11-12T17:09:36.866Z,96.70
2023-11-12T17:12:04.429Z,96.60
2023-11-12T17:14:31.782Z,96.60
2023-11-12T17:16:58.812Z,96.50
2023-11-12T17:19:25.774Z,96.40
2023-11-12T17:21:53.529Z,96.40
2023-11-12T17:24:22.607Z,96.50
2023-11-12T17:26:51.534Z,96.50
2023-11-12T17:29:19.210Z,96.60
2023-11-12T17:31:46.161Z,96.60
2023-11-12T17:34:14.942Z,96.60
2023-11-12T17:36:42.021Z,96.70
2023-11-12T17:39:10.830Z,96.70
2023-11-12T17:41:38.018Z,96.80
2023-11-12T17:44:05.459Z,96.80
2023-11-12T17:46:32.857Z,96.90
2023-11-12T17:49:01.935Z,96.90
2023-11-12T17:51:29.139Z,96.90
2023-11-12T17:53:56.076Z,96.90
2023-11-12T17:56:23.325Z,97.20
2023-11-12T17:58:51.086Z,96.90
2023-11-12T18:01:19.587Z,96.90
2023-11-12T18:03:49.843Z,96.90
2023-11-12T18:06:20.090Z,96.80
2023-11-12T18:08:47.071Z,96.90
2023-11-12T18:11:17.185Z,97.00
2023-11-12T18:13:45.382Z,97.30
2023-11-12T18:16:12.689Z,97.50
2023-11-12T18:18:40.809Z,97.30
2023-11-12T18:21:08.064Z,97.30
2023-11-12T18:23:35.572Z,97.50
2023-11-12T18:26:02.889Z,97.70
2023-11-12T18:28:30.000Z,97.50
2023-11-12T18:30:57.397Z,97.20
2023-11-12T18:33:24.345Z,97.10
2023-11-12T18:35:51.249Z,97.00
2023-11-12T18:38:19.178Z,97.20
2023-11-12T18:40:48.435Z,97.40
2023-11-12T18:43:16.796Z,97.40
2023-11-12T18:45:43.946Z,97.50
2023-11-12T18:48:11.642Z,97.60
2023-11-12T18:50:38.876Z,97.80
2023-11-12T18:53:06.027Z,97.60
2023-11-12T18:55:33.058Z,97.90
2023-11-12T18:58:00.466Z,98.10
2023-11-12T19:00:27.412Z,97.90
2023-11-12T19:02:54.826Z,97.80
2023-11-12T19:05:22.677Z,97.60
2023-11-12T19:07:49.872Z,97.70
2023-11-12T19:10:17.780Z,97.70
2023-11-12T19:12:45.544Z,97.70
2023-11-12T19:15:14.480Z,97.90
2023-11-12T19:17:44.494Z,97.60
2023-11-12T19:20:16.088Z,97.70
2023-11-12T19:22:44.063Z,97.60
2023-11-12T19:25:17.368Z,97.60
2023-11-12T19:27:45.088Z,97.40
2023-11-12T19:30:15.571Z,97.50
2023-11-12T19:32:44.200Z,97.20
2023-11-12T19:35:12.504Z,97.30
2023-11-12T19:37:39.761Z,97.20
2023-11-12T19:40:11.130Z,97.20
2023-11-12T19:42:40.022Z,97.20
2023-11-12T19:45:07.443Z,97.50
2023-11-12T19:47:34.606Z,97.30
2023-11-12T19:50:01.783Z,97.10
2023-11-12T19:52:29.585Z,97.10
2023-11-12T19:54:56.751Z,97.20
2023-11-12T19:57:24.127Z,97.00
2023-11-12T19:59:51.046Z,97.00
2023-11-12T20:02:18.188Z,97.10
2023-11-12T20:04:45.199Z,97.20
2023-11-12T20:07:12.600Z,97.10
2023-11-12T20:09:40.381Z,97.10
2023-11-12T20:12:07.814Z,97.10
2023-11-12T20:14:37.806Z,97.20
2023-11-12T20:17:05.038Z,97.30
2023-11-12T20:19:32.048Z,97.40
2023-11-12T20:21:59.139Z,97.40
2023-11-12T20:24:27.078Z,97.40
2023-11-12T20:26:55.430Z,97.50
2023-11-12T20:29:22.531Z,97.40
2023-11-12T20:31:55.463Z,97.40
2023-11-12T20:34:23.657Z,97.40
2023-11-12T20:36:51.926Z,97.60
2023-11-12T20:39:21.310Z,97.70
2023-11-12T20:41:50.978Z,97.80
2023-11-12T20:44:18.107Z,97.60
2023-11-12T20:46:46.178Z,97.60
2023-11-12T20:49:18.381Z,97.60
2023-11-12T20:51:52.401Z,97.60
2023-11-12T20:54:19.415Z,97.40
2023-11-12T20:56:46.494Z,97.20
2023-11-12T20:59:14.011Z,97.20
2023-11-12T21:01:41.347Z,97.20
2023-11-12T21:04:12.485Z,97.10
2023-11-12T21:06:41.850Z,97.10
2023-11-12T21:09:09.829Z,97.10
2023-11-12T21:11:41.179Z,97.10
2023-11-12T21:14:12.760Z,97.10
2023-11-12T21:16:41.269Z,97.20
2023-11-12T21:19:09.944Z,97.20
2023-11-12T21:21:38.941Z,97.20
2023-11-12T21:24:07.189Z,97.30
2023-11-12T21:26:34.901Z,97.30
2023-11-12T21:29:01.892Z,97.40
2023-11-12T21:31:28.872Z,97.40
2023-11-12T21:33:55.899Z,97.50
2023-11-12T21:36:23.219Z,97.50
2023-11-12T21:38:50.458Z,97.50
2023-11-12T21:41:18.797Z,97.60
2023-11-12T21:43:46.002Z,97.50
2023-11-12T21:46:16.410Z,97.50
2023-11-12T21:48:43.912Z,97.60
2023-11-12T21:51:10.993Z,97.50
2023-11-12T21:53:38.109Z,97.50
2023-11-12T21:56:05.809Z,97.50
2023-11-12T21:58:33.519Z,97.50
2023-11-12T22:01:01.243Z,97.50
2023-11-12T22:03:28.673Z,97.50
2023-11-12T22:05:56.123Z,97.50
2023-11-12T22:08:23.748Z,97.50
2023-11-12T22:10:51.129Z,97.40
2023-11-12T22:13:21.795Z,97.40
2023-11-12T22:15:49.172Z,97.40
2023-11-12T22:18:16.366Z,97.40
2023-11-12T22:20:43.343Z,97.40
2023-11-12T22:23:11.955Z,97.40
2023-11-12T22:25:39.822Z,97.40
2023-11-12T22:28:08.161Z,97.40
2023-11-12T22:30:36.935Z,97.40
2023-11-12T22:33:03.951Z,97.30
2023-11-12T22:35:30.927Z,97.40
2023-11-12T22:37:58.519Z,97.30
2023-11-12T22:40:25.774Z,97.40
2023-11-12T22:42:53.394Z,97.40
2023-11-12T22:45:20.605Z,97.40
2023-11-12T22:47:48.092Z,97.40
2023-11-12T22:50:18.229Z,97.30
2023-11-12T22:52:45.298Z,97.40
2023-11-12T22:55:12.698Z,97.30
2023-11-12T22:57:41.126Z,97.40
2023-11-12T23:02:57.153Z,97.40
2023-11-12T23:05:24.254Z,97.30
2023-11-12T23:07:51.206Z,97.30
2023-11-12T23:10:18.151Z,97.30
2023-11-12T23:12:45.083Z,97.30
2023-11-12T23:15:12.669Z,97.30
2023-11-12T23:17:40.196Z,97.40
2023-11-12T23:20:10.158Z,97.40
2023-11-12T23:22:37.439Z,97.40
2023-11-12T23:25:05.528Z,97.40
2023-11-12T23:27:33.246Z,97.50
2023-11-12T23:30:00.239Z,97.50
2023-11-12T23:32:27.402Z,97.50
2023-11-12T23:34:55.724Z,97.50
2023-11-12T23:37:22.815Z,97.50
2023-11-12T23:39:49.794Z,97.50
2023-11-12T23:42:18.162Z,97.60
2023-11-12T23:44:45.092Z,97.60
2023-11-12T23:47:12.061Z,97.60
2023-11-12T23:49:39.009Z,97.60
2023-11-12T23:52:06.633Z,97.50
2023-11-12T23:54:33.551Z,97.50
2023-11-12T23:57:00.938Z,97.50
2023-11-12T23:59:27.869Z,97.50
